sensor_id;sensor_type;location;lat;lon;timestamp;P1;durP1;ratioP1;P2;durP2;ratioP2
9809;SDS011;4944;52.514;13.192;2024-03-23T00:55:05;9.47;;;2.83;;
9809;SDS011;4944;52.514;13.192;2024-03-23T00:57:32;9.50;;;2.80;;
9809;SDS011;4944;52.514;13.192;2024-03-23T00:59:58;11.00;;;3.00;;
9809;SDS011;4944;52.514;13.192;2024-03-23T01:02:25;8.53;;;2.80;;
9809;SDS011;4944;52.514;13.192;2024-03-23T01:04:51;9.97;;;3.13;;
9809;SDS011;4944;52.514;13.192;2024-03-23T01:07:18;9.43;;;3.60;;
9809;SDS011;4944;52.514;13.192;2024-03-23T01:09:44;9.37;;;2.77;;
9809;SDS011;4944;52.514;13.192;2024-03-23T01:12:12;10.77;;;2.90;;
9809;SDS011;4944;52.514;13.192;2024-03-23T01:14:38;9.60;;;3.00;;
9809;SDS011;4944;52.514;13.192;2024-03-23T01:17:05;11.67;;;3.67;;
9809;SDS011;4944;52.514;13.192;2024-03-23T01:19:31;9.23;;;2.87;;
9809;SDS011;4944;52.514;13.192;2024-03-23T01:21:58;10.00;;;2.70;;
9809;SDS011;4944;52.514;13.192;2024-03-23T01:24:23;11.27;;;3.17;;
9809;SDS011;4944;52.514;13.192;2024-03-23T01:26:50;8.20;;;2.53;;
9809;SDS011;4944;52.514;13.192;2024-03-23T01:29:17;9.37;;;3.23;;
9809;SDS011;4944;52.514;13.192;2024-03-23T01:31:44;6.93;;;2.47;;
9809;SDS011;4944;52.514;13.192;2024-03-23T01:34:10;12.47;;;3.47;;
9809;SDS011;4944;52.514;13.192;2024-03-23T01:36:37;9.90;;;3.00;;
9809;SDS011;4944;52.514;13.192;2024-03-23T01:39:04;10.00;;;2.77;;
9809;SDS011;4944;52.514;13.192;2024-03-23T01:41:34;7.23;;;2.60;;
9809;SDS011;4944;52.514;13.192;2024-03-23T01:44:00;11.90;;;2.83;;
9809;SDS011;4944;52.514;13.192;2024-03-23T01:46:33;7.60;;;2.67;;
9809;SDS011;4944;52.514;13.192;2024-03-23T01:49:00;10.93;;;3.07;;
9809;SDS011;4944;52.514;13.192;2024-03-23T01:51:27;6.27;;;2.87;;
9809;SDS011;4944;52.514;13.192;2024-03-23T01:53:54;11.27;;;2.90;;
9809;SDS011;4944;52.514;13.192;2024-03-23T01:56:22;6.23;;;2.33;;
9809;SDS011;4944;52.514;13.192;2024-03-23T01:58:48;11.40;;;3.30;;
9809;SDS011;4944;52.514;13.192;2024-03-23T02:01:15;7.70;;;2.50;;
9809;SDS011;4944;52.514;13.192;2024-03-23T02:03:42;8.33;;;2.83;;
9809;SDS011;4944;52.514;13.192;2024-03-23T02:06:09;8.73;;;2.60;;
9809;SDS011;4944;52.514;13.192;2024-03-23T02:08:35;10.07;;;2.70;;
9809;SDS011;4944;52.514;13.192;2024-03-23T02:11:02;7.57;;;2.40;;
9809;SDS011;4944;52.514;13.192;2024-03-23T02:13:28;8.90;;;2.43;;
9809;SDS011;4944;52.514;13.192;2024-03-23T02:15:56;10.07;;;2.40;;
9809;SDS011;4944;52.514;13.192;2024-03-23T02:18:22;8.20;;;2.60;;
9809;SDS011;4944;52.514;13.192;2024-03-23T02:20:50;7.90;;;2.90;;
9809;SDS011;4944;52.514;13.192;2024-03-23T02:23:18;10.30;;;2.87;;
9809;SDS011;4944;52.514;13.192;2024-03-23T02:25:45;7.97;;;2.63;;
9809;SDS011;4944;52.514;13.192;2024-03-23T02:28:11;8.67;;;2.47;;
9809;SDS011;4944;52.514;13.192;2024-03-23T02:30:38;7.27;;;2.87;;
9809;SDS011;4944;52.514;13.192;2024-03-23T02:33:04;11.60;;;2.87;;
9809;SDS011;4944;52.514;13.192;2024-03-23T02:35:31;8.17;;;2.47;;
9809;SDS011;4944;52.514;13.192;2024-03-23T02:37:57;6.77;;;2.50;;
9809;SDS011;4944;52.514;13.192;2024-03-23T02:40:25;7.87;;;2.70;;
9809;SDS011;4944;52.514;13.192;2024-03-23T02:42:52;14.03;;;2.90;;
9809;SDS011;4944;52.514;13.192;2024-03-23T02:45:19;8.23;;;2.70;;
9809;SDS011;4944;52.514;13.192;2024-03-23T02:47:45;12.87;;;3.00;;
9809;SDS011;4944;52.514;13.192;2024-03-23T02:50:16;5.83;;;2.83;;
9809;SDS011;4944;52.514;13.192;2024-03-23T02:52:43;10.97;;;3.40;;
9809;SDS011;4944;52.514;13.192;2024-03-23T02:55:10;8.07;;;2.50;;
9809;SDS011;4944;52.514;13.192;2024-03-23T02:57:37;6.87;;;2.50;;
9809;SDS011;4944;52.514;13.192;2024-03-23T03:00:04;8.53;;;2.73;;
9809;SDS011;4944;52.514;13.192;2024-03-23T03:02:32;8.60;;;2.57;;
9809;SDS011;4944;52.514;13.192;2024-03-23T03:04:59;10.80;;;2.80;;
9809;SDS011;4944;52.514;13.192;2024-03-23T03:07:25;6.67;;;2.67;;
9809;SDS011;4944;52.514;13.192;2024-03-23T03:09:52;7.27;;;2.40;;
9809;SDS011;4944;52.514;13.192;2024-03-23T03:12:17;7.50;;;3.00;;
9809;SDS011;4944;52.514;13.192;2024-03-23T03:14:46;12.17;;;3.47;;
9809;SDS011;4944;52.514;13.192;2024-03-23T03:17:11;10.70;;;3.03;;
9809;SDS011;4944;52.514;13.192;2024-03-23T03:19:38;8.00;;;2.73;;
9809;SDS011;4944;52.514;13.192;2024-03-23T03:22:04;11.47;;;3.00;;
9809;SDS011;4944;52.514;13.192;2024-03-23T03:24:31;11.60;;;3.00;;
9809;SDS011;4944;52.514;13.192;2024-03-23T03:26:58;11.00;;;3.27;;
9809;SDS011;4944;52.514;13.192;2024-03-23T03:29:24;10.27;;;3.27;;
9809;SDS011;4944;52.514;13.192;2024-03-23T03:31:52;9.70;;;2.77;;
9809;SDS011;4944;52.514;13.192;2024-03-23T03:34:19;10.13;;;3.47;;
9809;SDS011;4944;52.514;13.192;2024-03-23T03:36:45;7.93;;;2.53;;
9809;SDS011;4944;52.514;13.192;2024-03-23T03:39:11;11.60;;;3.30;;
9809;SDS011;4944;52.514;13.192;2024-03-23T03:41:37;7.13;;;2.97;;
9809;SDS011;4944;52.514;13.192;2024-03-23T03:44:04;11.70;;;3.07;;
9809;SDS011;4944;52.514;13.192;2024-03-23T03:46:30;6.50;;;2.63;;
9809;SDS011;4944;52.514;13.192;2024-03-23T03:48:58;11.93;;;3.13;;
9809;SDS011;4944;52.514;13.192;2024-03-23T03:51:24;7.13;;;3.00;;
9809;SDS011;4944;52.514;13.192;2024-03-23T03:53:51;7.87;;;2.60;;
9809;SDS011;4944;52.514;13.192;2024-03-23T03:56:17;8.63;;;2.37;;
9809;SDS011;4944;52.514;13.192;2024-03-23T03:58:44;8.90;;;2.87;;
9809;SDS011;4944;52.514;13.192;2024-03-23T04:01:10;9.83;;;3.03;;
9809;SDS011;4944;52.514;13.192;2024-03-23T04:03:36;9.73;;;3.20;;
9809;SDS011;4944;52.514;13.192;2024-03-23T04:06:06;8.43;;;3.00;;
9809;SDS011;4944;52.514;13.192;2024-03-23T04:08:33;7.97;;;2.33;;
9809;SDS011;4944;52.514;13.192;2024-03-23T04:10:58;7.77;;;3.37;;
9809;SDS011;4944;52.514;13.192;2024-03-23T04:13:25;12.20;;;3.27;;
9809;SDS011;4944;52.514;13.192;2024-03-23T04:15:53;9.77;;;2.70;;
9809;SDS011;4944;52.514;13.192;2024-03-23T04:18:20;7.63;;;2.60;;
9809;SDS011;4944;52.514;13.192;2024-03-23T04:20:46;6.80;;;3.07;;
9809;SDS011;4944;52.514;13.192;2024-03-23T04:23:15;7.77;;;2.57;;
9809;SDS011;4944;52.514;13.192;2024-03-23T04:25:40;10.83;;;2.70;;
9809;SDS011;4944;52.514;13.192;2024-03-23T04:28:07;11.70;;;2.93;;
9809;SDS011;4944;52.514;13.192;2024-03-23T04:30:33;9.77;;;3.70;;
9809;SDS011;4944;52.514;13.192;2024-03-23T04:33:00;7.77;;;2.50;;
9809;SDS011;4944;52.514;13.192;2024-03-23T04:35:26;12.70;;;3.17;;
9809;SDS011;4944;52.514;13.192;2024-03-23T04:37:53;6.70;;;2.00;;
9809;SDS011;4944;52.514;13.192;2024-03-23T04:40:22;7.33;;;2.10;;
9809;SDS011;4944;52.514;13.192;2024-03-23T04:42:48;8.40;;;2.70;;
9809;SDS011;4944;52.514;13.192;2024-03-23T04:45:15;7.07;;;2.03;;
9809;SDS011;4944;52.514;13.192;2024-03-23T04:47:42;7.80;;;2.20;;
9809;SDS011;4944;52.514;13.192;2024-03-23T04:50:09;6.80;;;2.30;;
9809;SDS011;4944;52.514;13.192;2024-03-23T04:52:36;4.43;;;2.30;;
9809;SDS011;4944;52.514;13.192;2024-03-23T04:55:03;5.30;;;1.87;;
9809;SDS011;4944;52.514;13.192;2024-03-23T04:57:32;5.50;;;2.17;;
9809;SDS011;4944;52.514;13.192;2024-03-23T04:59:59;8.67;;;2.10;;
9809;SDS011;4944;52.514;13.192;2024-03-23T05:02:25;3.30;;;1.40;;
9809;SDS011;4944;52.514;13.192;2024-03-23T05:04:52;3.33;;;1.47;;
9809;SDS011;4944;52.514;13.192;2024-03-23T05:07:18;4.00;;;1.80;;
9809;SDS011;4944;52.514;13.192;2024-03-23T05:09:45;4.60;;;1.50;;
9809;SDS011;4944;52.514;13.192;2024-03-23T05:12:11;4.00;;;1.87;;
9809;SDS011;4944;52.514;13.192;2024-03-23T05:14:39;2.77;;;1.70;;
9809;SDS011;4944;52.514;13.192;2024-03-23T05:17:06;5.63;;;2.40;;
9809;SDS011;4944;52.514;13.192;2024-03-23T05:19:33;5.20;;;1.63;;
9809;SDS011;4944;52.514;13.192;2024-03-23T05:21:59;2.40;;;1.30;;
9809;SDS011;4944;52.514;13.192;2024-03-23T05:24:25;6.93;;;1.80;;
9809;SDS011;4944;52.514;13.192;2024-03-23T05:26:51;4.83;;;1.83;;
9809;SDS011;4944;52.514;13.192;2024-03-23T05:29:18;2.40;;;1.23;;
9809;SDS011;4944;52.514;13.192;2024-03-23T05:31:48;2.13;;;1.30;;
9809;SDS011;4944;52.514;13.192;2024-03-23T05:34:18;5.40;;;1.60;;
9809;SDS011;4944;52.514;13.192;2024-03-23T05:36:44;5.27;;;1.70;;
9809;SDS011;4944;52.514;13.192;2024-03-23T05:39:10;5.07;;;1.67;;
9809;SDS011;4944;52.514;13.192;2024-03-23T05:41:36;3.40;;;1.40;;
9809;SDS011;4944;52.514;13.192;2024-03-23T05:44:03;8.03;;;1.97;;
9809;SDS011;4944;52.514;13.192;2024-03-23T05:46:29;6.00;;;1.70;;
9809;SDS011;4944;52.514;13.192;2024-03-23T05:48:58;6.93;;;1.60;;
9809;SDS011;4944;52.514;13.192;2024-03-23T05:51:27;6.03;;;1.73;;
9809;SDS011;4944;52.514;13.192;2024-03-23T05:53:55;2.40;;;1.23;;
9809;SDS011;4944;52.514;13.192;2024-03-23T05:56:21;4.90;;;1.40;;
9809;SDS011;4944;52.514;13.192;2024-03-23T05:58:47;6.70;;;1.60;;
9809;SDS011;4944;52.514;13.192;2024-03-23T06:01:13;3.17;;;1.50;;
9809;SDS011;4944;52.514;13.192;2024-03-23T06:03:40;3.43;;;1.50;;
9809;SDS011;4944;52.514;13.192;2024-03-23T06:06:10;3.83;;;2.00;;
9809;SDS011;4944;52.514;13.192;2024-03-23T06:08:37;4.03;;;1.50;;
9809;SDS011;4944;52.514;13.192;2024-03-23T06:11:04;4.23;;;1.70;;
9809;SDS011;4944;52.514;13.192;2024-03-23T06:13:31;4.07;;;1.70;;
9809;SDS011;4944;52.514;13.192;2024-03-23T06:15:57;3.30;;;1.60;;
9809;SDS011;4944;52.514;13.192;2024-03-23T06:18:24;5.37;;;2.80;;
9809;SDS011;4944;52.514;13.192;2024-03-23T06:20:50;5.87;;;1.90;;
9809;SDS011;4944;52.514;13.192;2024-03-23T06:23:19;3.40;;;1.50;;
9809;SDS011;4944;52.514;13.192;2024-03-23T06:25:45;4.23;;;1.60;;
9809;SDS011;4944;52.514;13.192;2024-03-23T06:28:12;4.53;;;1.83;;
9809;SDS011;4944;52.514;13.192;2024-03-23T06:30:39;5.20;;;1.80;;
9809;SDS011;4944;52.514;13.192;2024-03-23T06:33:05;3.87;;;1.90;;
9809;SDS011;4944;52.514;13.192;2024-03-23T06:35:31;5.00;;;1.87;;
9809;SDS011;4944;52.514;13.192;2024-03-23T06:37:58;5.27;;;1.80;;
9809;SDS011;4944;52.514;13.192;2024-03-23T06:40:25;5.97;;;1.83;;
9809;SDS011;4944;52.514;13.192;2024-03-23T06:42:52;5.83;;;1.77;;
9809;SDS011;4944;52.514;13.192;2024-03-23T06:45:18;1.90;;;1.50;;
9809;SDS011;4944;52.514;13.192;2024-03-23T06:47:48;5.03;;;2.03;;
9809;SDS011;4944;52.514;13.192;2024-03-23T06:50:14;5.47;;;2.13;;
9809;SDS011;4944;52.514;13.192;2024-03-23T06:52:41;5.63;;;1.83;;
9809;SDS011;4944;52.514;13.192;2024-03-23T06:55:07;6.37;;;1.77;;
9809;SDS011;4944;52.514;13.192;2024-03-23T06:57:36;7.13;;;2.13;;
9809;SDS011;4944;52.514;13.192;2024-03-23T07:00:02;4.73;;;2.13;;
9809;SDS011;4944;52.514;13.192;2024-03-23T07:02:30;5.53;;;1.97;;
9809;SDS011;4944;52.514;13.192;2024-03-23T07:04:55;3.13;;;2.00;;
9809;SDS011;4944;52.514;13.192;2024-03-23T07:07:22;3.80;;;1.77;;
9809;SDS011;4944;52.514;13.192;2024-03-23T07:09:48;5.30;;;2.20;;
9809;SDS011;4944;52.514;13.192;2024-03-23T07:12:15;6.47;;;2.17;;
9809;SDS011;4944;52.514;13.192;2024-03-23T07:14:42;3.57;;;1.90;;
9809;SDS011;4944;52.514;13.192;2024-03-23T07:17:10;3.80;;;2.10;;
9809;SDS011;4944;52.514;13.192;2024-03-23T07:19:36;3.67;;;1.90;;
9809;SDS011;4944;52.514;13.192;2024-03-23T07:22:03;4.43;;;1.93;;
9809;SDS011;4944;52.514;13.192;2024-03-23T07:24:29;3.93;;;1.93;;
9809;SDS011;4944;52.514;13.192;2024-03-23T07:26:57;5.73;;;2.00;;
9809;SDS011;4944;52.514;13.192;2024-03-23T07:29:23;6.93;;;2.30;;
9809;SDS011;4944;52.514;13.192;2024-03-23T07:31:52;4.90;;;2.23;;
9809;SDS011;4944;52.514;13.192;2024-03-23T07:34:18;4.43;;;1.83;;
9809;SDS011;4944;52.514;13.192;2024-03-23T07:36:45;3.43;;;1.97;;
9809;SDS011;4944;52.514;13.192;2024-03-23T07:39:11;2.13;;;1.60;;
9809;SDS011;4944;52.514;13.192;2024-03-23T07:41:37;3.53;;;1.93;;
9809;SDS011;4944;52.514;13.192;2024-03-23T07:44:03;5.27;;;1.80;;
9809;SDS011;4944;52.514;13.192;2024-03-23T07:46:31;4.67;;;1.90;;
9809;SDS011;4944;52.514;13.192;2024-03-23T07:48:58;3.63;;;1.63;;
9809;SDS011;4944;52.514;13.192;2024-03-23T07:51:25;4.07;;;2.00;;
9809;SDS011;4944;52.514;13.192;2024-03-23T07:53:50;5.87;;;2.23;;
9809;SDS011;4944;52.514;13.192;2024-03-23T07:56:18;2.40;;;1.57;;
9809;SDS011;4944;52.514;13.192;2024-03-23T07:58:45;6.23;;;2.43;;
9809;SDS011;4944;52.514;13.192;2024-03-23T08:01:12;2.37;;;1.77;;
9809;SDS011;4944;52.514;13.192;2024-03-23T08:03:40;4.90;;;2.13;;
9809;SDS011;4944;52.514;13.192;2024-03-23T08:06:09;5.53;;;2.20;;
9809;SDS011;4944;52.514;13.192;2024-03-23T08:08:37;5.27;;;2.23;;
9809;SDS011;4944;52.514;13.192;2024-03-23T08:11:05;3.73;;;2.00;;
9809;SDS011;4944;52.514;13.192;2024-03-23T08:13:31;6.00;;;2.10;;
9809;SDS011;4944;52.514;13.192;2024-03-23T08:15:58;4.47;;;1.80;;
9809;SDS011;4944;52.514;13.192;2024-03-23T08:18:25;7.83;;;1.70;;
9809;SDS011;4944;52.514;13.192;2024-03-23T08:20:56;8.80;;;2.07;;
9809;SDS011;4944;52.514;13.192;2024-03-23T08:23:23;4.00;;;1.70;;
9809;SDS011;4944;52.514;13.192;2024-03-23T08:25:51;4.33;;;1.70;;
9809;SDS011;4944;52.514;13.192;2024-03-23T08:28:16;3.00;;;1.50;;
9809;SDS011;4944;52.514;13.192;2024-03-23T08:30:43;3.93;;;1.80;;
9809;SDS011;4944;52.514;13.192;2024-03-23T08:33:09;2.10;;;1.80;;
9809;SDS011;4944;52.514;13.192;2024-03-23T08:35:36;3.33;;;1.50;;
9809;SDS011;4944;52.514;13.192;2024-03-23T08:38:02;8.43;;;1.87;;
9809;SDS011;4944;52.514;13.192;2024-03-23T08:40:31;4.77;;;1.37;;
9809;SDS011;4944;52.514;13.192;2024-03-23T08:42:56;2.80;;;1.57;;
9809;SDS011;4944;52.514;13.192;2024-03-23T08:45:24;3.10;;;1.77;;
9809;SDS011;4944;52.514;13.192;2024-03-23T08:47:50;2.93;;;1.50;;
9809;SDS011;4944;52.514;13.192;2024-03-23T08:50:16;4.77;;;1.20;;
9809;SDS011;4944;52.514;13.192;2024-03-23T08:52:44;3.23;;;1.20;;
9809;SDS011;4944;52.514;13.192;2024-03-23T08:55:10;3.40;;;1.20;;
9809;SDS011;4944;52.514;13.192;2024-03-23T08:57:38;4.43;;;1.30;;
9809;SDS011;4944;52.514;13.192;2024-03-23T09:00:05;1.83;;;1.23;;
9809;SDS011;4944;52.514;13.192;2024-03-23T09:02:34;2.17;;;1.00;;
9809;SDS011;4944;52.514;13.192;2024-03-23T09:05:01;2.23;;;1.23;;
9809;SDS011;4944;52.514;13.192;2024-03-23T09:07:29;3.57;;;1.20;;
9809;SDS011;4944;52.514;13.192;2024-03-23T09:09:56;4.17;;;1.30;;
9809;SDS011;4944;52.514;13.192;2024-03-23T09:12:22;5.13;;;1.80;;
9809;SDS011;4944;52.514;13.192;2024-03-23T09:14:51;2.77;;;1.47;;
9809;SDS011;4944;52.514;13.192;2024-03-23T09:17:19;3.90;;;1.20;;
9809;SDS011;4944;52.514;13.192;2024-03-23T09:19:46;6.57;;;1.80;;
9809;SDS011;4944;52.514;13.192;2024-03-23T09:22:12;3.80;;;1.60;;
9809;SDS011;4944;52.514;13.192;2024-03-23T09:24:39;7.17;;;1.90;;
9809;SDS011;4944;52.514;13.192;2024-03-23T09:27:05;4.07;;;1.57;;
9809;SDS011;4944;52.514;13.192;2024-03-23T09:29:31;6.47;;;2.00;;
9809;SDS011;4944;52.514;13.192;2024-03-23T09:31:59;2.83;;;1.30;;
9809;SDS011;4944;52.514;13.192;2024-03-23T09:34:26;1.93;;;1.40;;
9809;SDS011;4944;52.514;13.192;2024-03-23T09:36:51;3.13;;;1.30;;
9809;SDS011;4944;52.514;13.192;2024-03-23T09:39:18;3.73;;;1.73;;
9809;SDS011;4944;52.514;13.192;2024-03-23T09:41:45;5.00;;;1.77;;
9809;SDS011;4944;52.514;13.192;2024-03-23T09:44:12;2.97;;;1.57;;
9809;SDS011;4944;52.514;13.192;2024-03-23T09:46:38;2.60;;;1.73;;
9809;SDS011;4944;52.514;13.192;2024-03-23T09:49:06;3.07;;;1.67;;
9809;SDS011;4944;52.514;13.192;2024-03-23T09:51:35;4.43;;;1.70;;
9809;SDS011;4944;52.514;13.192;2024-03-23T09:54:02;2.50;;;1.80;;
9809;SDS011;4944;52.514;13.192;2024-03-23T09:56:28;3.53;;;1.80;;
9809;SDS011;4944;52.514;13.192;2024-03-23T09:59:00;3.43;;;1.57;;
9809;SDS011;4944;52.514;13.192;2024-03-23T10:01:26;5.63;;;1.83;;
9809;SDS011;4944;52.514;13.192;2024-03-23T10:03:53;6.40;;;2.10;;
9809;SDS011;4944;52.514;13.192;2024-03-23T10:06:22;5.20;;;1.90;;
9809;SDS011;4944;52.514;13.192;2024-03-23T10:08:51;3.17;;;1.90;;
9809;SDS011;4944;52.514;13.192;2024-03-23T10:11:18;4.50;;;1.63;;
9809;SDS011;4944;52.514;13.192;2024-03-23T10:13:46;4.30;;;1.70;;
9809;SDS011;4944;52.514;13.192;2024-03-23T10:16:12;4.20;;;1.90;;
9809;SDS011;4944;52.514;13.192;2024-03-23T10:18:48;4.17;;;2.23;;
9809;SDS011;4944;52.514;13.192;2024-03-23T10:21:14;4.20;;;1.67;;
9809;SDS011;4944;52.514;13.192;2024-03-23T10:23:44;3.80;;;1.60;;
9809;SDS011;4944;52.514;13.192;2024-03-23T10:26:14;6.43;;;1.97;;
9809;SDS011;4944;52.514;13.192;2024-03-23T10:28:53;4.87;;;2.30;;
9809;SDS011;4944;52.514;13.192;2024-03-23T10:31:23;5.53;;;1.77;;
9809;SDS011;4944;52.514;13.192;2024-03-23T10:33:50;5.40;;;1.83;;
9809;SDS011;4944;52.514;13.192;2024-03-23T10:36:18;2.80;;;1.50;;
9809;SDS011;4944;52.514;13.192;2024-03-23T10:38:48;3.90;;;1.80;;
9809;SDS011;4944;52.514;13.192;2024-03-23T10:41:15;3.30;;;1.70;;
9809;SDS011;4944;52.514;13.192;2024-03-23T10:43:43;4.87;;;2.10;;
9809;SDS011;4944;52.514;13.192;2024-03-23T10:46:11;3.57;;;1.90;;
9809;SDS011;4944;52.514;13.192;2024-03-23T10:48:38;2.70;;;1.30;;
9809;SDS011;4944;52.514;13.192;2024-03-23T10:51:04;4.27;;;1.70;;
9809;SDS011;4944;52.514;13.192;2024-03-23T10:53:33;2.70;;;1.40;;
9809;SDS011;4944;52.514;13.192;2024-03-23T10:56:01;5.87;;;2.00;;
9809;SDS011;4944;52.514;13.192;2024-03-23T10:58:28;2.57;;;1.50;;
9809;SDS011;4944;52.514;13.192;2024-03-23T11:00:57;2.83;;;1.33;;
9809;SDS011;4944;52.514;13.192;2024-03-23T11:03:33;1.47;;;1.30;;
9809;SDS011;4944;52.514;13.192;2024-03-23T11:06:00;4.10;;;1.90;;
9809;SDS011;4944;52.514;13.192;2024-03-23T11:08:31;4.03;;;2.13;;
9809;SDS011;4944;52.514;13.192;2024-03-23T11:13:47;4.13;;;1.87;;
9809;SDS011;4944;52.514;13.192;2024-03-23T11:16:14;2.77;;;1.73;;
9809;SDS011;4944;52.514;13.192;2024-03-23T11:18:42;6.03;;;2.30;;
9809;SDS011;4944;52.514;13.192;2024-03-23T11:21:08;1.77;;;1.50;;
9809;SDS011;4944;52.514;13.192;2024-03-23T11:23:35;3.97;;;1.50;;
9809;SDS011;4944;52.514;13.192;2024-03-23T11:26:01;3.93;;;1.70;;
9809;SDS011;4944;52.514;13.192;2024-03-23T11:28:30;2.17;;;1.20;;
9809;SDS011;4944;52.514;13.192;2024-03-23T11:30:56;3.53;;;1.40;;
9809;SDS011;4944;52.514;13.192;2024-03-23T11:33:23;3.50;;;1.47;;
9809;SDS011;4944;52.514;13.192;2024-03-23T11:35:49;4.13;;;1.43;;
9809;SDS011;4944;52.514;13.192;2024-03-23T11:38:17;4.77;;;1.57;;
9809;SDS011;4944;52.514;13.192;2024-03-23T11:40:44;4.57;;;1.80;;
9809;SDS011;4944;52.514;13.192;2024-03-23T11:43:12;4.73;;;1.50;;
9809;SDS011;4944;52.514;13.192;2024-03-23T11:45:42;2.77;;;1.57;;
9809;SDS011;4944;52.514;13.192;2024-03-23T11:48:10;4.37;;;1.90;;
9809;SDS011;4944;52.514;13.192;2024-03-23T11:50:37;4.77;;;1.60;;
9809;SDS011;4944;52.514;13.192;2024-03-23T11:53:11;2.07;;;1.40;;
9809;SDS011;4944;52.514;13.192;2024-03-23T11:55:39;3.53;;;1.50;;
9809;SDS011;4944;52.514;13.192;2024-03-23T11:58:08;3.80;;;1.63;;
9809;SDS011;4944;52.514;13.192;2024-03-23T12:00:34;4.03;;;1.87;;
9809;SDS011;4944;52.514;13.192;2024-03-23T12:03:02;4.20;;;1.50;;
9809;SDS011;4944;52.514;13.192;2024-03-23T12:05:29;6.23;;;1.67;;
9809;SDS011;4944;52.514;13.192;2024-03-23T12:10:44;5.47;;;2.03;;
9809;SDS011;4944;52.514;13.192;2024-03-23T12:13:14;5.23;;;1.70;;
9809;SDS011;4944;52.514;13.192;2024-03-23T12:15:42;3.23;;;1.67;;
9809;SDS011;4944;52.514;13.192;2024-03-23T12:18:11;4.93;;;2.00;;
9809;SDS011;4944;52.514;13.192;2024-03-23T12:20:37;4.53;;;1.60;;
9809;SDS011;4944;52.514;13.192;2024-03-23T12:23:05;5.93;;;1.60;;
9809;SDS011;4944;52.514;13.192;2024-03-23T12:25:31;7.27;;;2.00;;
9809;SDS011;4944;52.514;13.192;2024-03-23T12:27:59;3.53;;;1.50;;
9809;SDS011;4944;52.514;13.192;2024-03-23T12:30:25;3.73;;;2.10;;
9809;SDS011;4944;52.514;13.192;2024-03-23T12:32:51;5.60;;;1.87;;
9809;SDS011;4944;52.514;13.192;2024-03-23T12:35:19;2.50;;;1.30;;
9809;SDS011;4944;52.514;13.192;2024-03-23T12:37:46;4.30;;;2.20;;
9809;SDS011;4944;52.514;13.192;2024-03-23T12:40:12;3.00;;;1.40;;
9809;SDS011;4944;52.514;13.192;2024-03-23T12:42:38;3.23;;;1.50;;
9809;SDS011;4944;52.514;13.192;2024-03-23T12:45:05;6.47;;;1.53;;
9809;SDS011;4944;52.514;13.192;2024-03-23T12:47:32;2.93;;;1.60;;
9809;SDS011;4944;52.514;13.192;2024-03-23T12:49:58;4.80;;;1.70;;
9809;SDS011;4944;52.514;13.192;2024-03-23T12:52:26;3.50;;;1.67;;
9809;SDS011;4944;52.514;13.192;2024-03-23T12:54:54;4.97;;;1.90;;
9809;SDS011;4944;52.514;13.192;2024-03-23T12:57:22;7.37;;;1.80;;
9809;SDS011;4944;52.514;13.192;2024-03-23T12:59:49;5.17;;;2.03;;
9809;SDS011;4944;52.514;13.192;2024-03-23T13:02:17;4.30;;;2.10;;
9809;SDS011;4944;52.514;13.192;2024-03-23T13:04:45;3.97;;;1.83;;
9809;SDS011;4944;52.514;13.192;2024-03-23T13:07:13;5.63;;;1.90;;
9809;SDS011;4944;52.514;13.192;2024-03-23T13:09:40;4.53;;;1.57;;
9809;SDS011;4944;52.514;13.192;2024-03-23T13:12:07;3.33;;;1.50;;
9809;SDS011;4944;52.514;13.192;2024-03-23T13:14:33;3.77;;;1.70;;
9809;SDS011;4944;52.514;13.192;2024-03-23T13:17:00;6.47;;;2.23;;
9809;SDS011;4944;52.514;13.192;2024-03-23T13:19:27;3.40;;;1.87;;
9809;SDS011;4944;52.514;13.192;2024-03-23T13:21:56;5.03;;;2.00;;
9809;SDS011;4944;52.514;13.192;2024-03-23T13:24:22;5.37;;;3.00;;
9809;SDS011;4944;52.514;13.192;2024-03-23T13:26:51;4.13;;;2.20;;
9809;SDS011;4944;52.514;13.192;2024-03-23T13:29:18;4.77;;;2.60;;
9809;SDS011;4944;52.514;13.192;2024-03-23T13:31:45;9.00;;;2.63;;
9809;SDS011;4944;52.514;13.192;2024-03-23T13:34:11;4.43;;;2.10;;
9809;SDS011;4944;52.514;13.192;2024-03-23T13:36:40;4.90;;;2.33;;
9809;SDS011;4944;52.514;13.192;2024-03-23T13:39:06;8.03;;;2.60;;
9809;SDS011;4944;52.514;13.192;2024-03-23T13:41:36;6.97;;;2.77;;
9809;SDS011;4944;52.514;13.192;2024-03-23T13:44:07;7.53;;;2.90;;
9809;SDS011;4944;52.514;13.192;2024-03-23T13:46:35;8.67;;;2.97;;
9809;SDS011;4944;52.514;13.192;2024-03-23T13:49:02;6.50;;;2.40;;
9809;SDS011;4944;52.514;13.192;2024-03-23T13:51:29;6.63;;;2.50;;
9809;SDS011;4944;52.514;13.192;2024-03-23T13:53:55;8.07;;;2.70;;
9809;SDS011;4944;52.514;13.192;2024-03-23T13:56:25;7.80;;;3.10;;
9809;SDS011;4944;52.514;13.192;2024-03-23T13:58:51;8.33;;;3.53;;
9809;SDS011;4944;52.514;13.192;2024-03-23T14:01:20;6.37;;;2.53;;
9809;SDS011;4944;52.514;13.192;2024-03-23T14:03:46;6.83;;;2.60;;
9809;SDS011;4944;52.514;13.192;2024-03-23T14:06:13;6.50;;;2.43;;
9809;SDS011;4944;52.514;13.192;2024-03-23T14:08:38;5.73;;;2.70;;
9809;SDS011;4944;52.514;13.192;2024-03-23T14:11:06;4.50;;;2.37;;
9809;SDS011;4944;52.514;13.192;2024-03-23T14:13:33;7.03;;;2.83;;
9809;SDS011;4944;52.514;13.192;2024-03-23T14:16:01;4.97;;;2.67;;
9809;SDS011;4944;52.514;13.192;2024-03-23T14:18:29;3.83;;;2.60;;
9809;SDS011;4944;52.514;13.192;2024-03-23T14:20:56;6.67;;;2.57;;
9809;SDS011;4944;52.514;13.192;2024-03-23T14:23:23;7.27;;;2.27;;
9809;SDS011;4944;52.514;13.192;2024-03-23T14:25:52;6.77;;;2.57;;
9809;SDS011;4944;52.514;13.192;2024-03-23T14:28:19;6.87;;;2.67;;
9809;SDS011;4944;52.514;13.192;2024-03-23T14:30:47;8.37;;;2.50;;
9809;SDS011;4944;52.514;13.192;2024-03-23T14:33:13;7.17;;;2.33;;
9809;SDS011;4944;52.514;13.192;2024-03-23T14:35:41;12.50;;;3.00;;
9809;SDS011;4944;52.514;13.192;2024-03-23T14:38:07;7.93;;;2.93;;
9809;SDS011;4944;52.514;13.192;2024-03-23T14:40:34;6.00;;;2.80;;
9809;SDS011;4944;52.514;13.192;2024-03-23T14:43:00;4.10;;;2.07;;
9809;SDS011;4944;52.514;13.192;2024-03-23T14:45:27;5.77;;;1.77;;
9809;SDS011;4944;52.514;13.192;2024-03-23T14:47:53;2.43;;;1.70;;
9809;SDS011;4944;52.514;13.192;2024-03-23T14:50:20;2.97;;;1.63;;
9809;SDS011;4944;52.514;13.192;2024-03-23T14:52:48;3.10;;;1.70;;
9809;SDS011;4944;52.514;13.192;2024-03-23T14:55:16;3.40;;;1.63;;
9809;SDS011;4944;52.514;13.192;2024-03-23T14:57:42;2.63;;;1.80;;
9809;SDS011;4944;52.514;13.192;2024-03-23T15:00:09;3.63;;;1.80;;
9809;SDS011;4944;52.514;13.192;2024-03-23T15:02:37;3.77;;;2.30;;
9809;SDS011;4944;52.514;13.192;2024-03-23T15:05:04;7.37;;;2.10;;
9809;SDS011;4944;52.514;13.192;2024-03-23T15:07:30;2.97;;;2.33;;
9809;SDS011;4944;52.514;13.192;2024-03-23T15:09:58;6.03;;;2.23;;
9809;SDS011;4944;52.514;13.192;2024-03-23T15:12:24;2.83;;;2.00;;
9809;SDS011;4944;52.514;13.192;2024-03-23T15:14:51;7.87;;;1.97;;
9809;SDS011;4944;52.514;13.192;2024-03-23T15:17:17;2.43;;;1.67;;
9809;SDS011;4944;52.514;13.192;2024-03-23T15:19:44;2.50;;;1.50;;
9809;SDS011;4944;52.514;13.192;2024-03-23T15:22:10;2.87;;;1.50;;
9809;SDS011;4944;52.514;13.192;2024-03-23T15:24:37;4.93;;;1.80;;
9809;SDS011;4944;52.514;13.192;2024-03-23T15:27:04;2.57;;;1.60;;
9809;SDS011;4944;52.514;13.192;2024-03-23T15:29:33;5.10;;;1.97;;
9809;SDS011;4944;52.514;13.192;2024-03-23T15:32:00;2.20;;;1.67;;
9809;SDS011;4944;52.514;13.192;2024-03-23T15:34:28;1.80;;;1.70;;
9809;SDS011;4944;52.514;13.192;2024-03-23T15:36:54;4.30;;;2.20;;
9809;SDS011;4944;52.514;13.192;2024-03-23T15:39:21;4.73;;;1.60;;
9809;SDS011;4944;52.514;13.192;2024-03-23T15:41:47;4.90;;;1.80;;
9809;SDS011;4944;52.514;13.192;2024-03-23T15:44:16;4.90;;;1.90;;
9809;SDS011;4944;52.514;13.192;2024-03-23T15:46:41;3.77;;;1.40;;
9809;SDS011;4944;52.514;13.192;2024-03-23T15:49:08;4.67;;;1.60;;
9809;SDS011;4944;52.514;13.192;2024-03-23T15:51:34;5.63;;;1.53;;
9809;SDS011;4944;52.514;13.192;2024-03-23T15:54:02;2.53;;;1.20;;
9809;SDS011;4944;52.514;13.192;2024-03-23T15:56:28;3.67;;;1.87;;
9809;SDS011;4944;52.514;13.192;2024-03-23T15:58:55;2.97;;;1.40;;